createdAt,value
2022-10-17T00:00:02.322Z,11.13
2022-10-17T00:02:32.221Z,11.31
2022-10-17T00:04:59.825Z,11.37
2022-10-17T00:07:27.389Z,11.55
2022-10-17T00:09:54.822Z,11.81
2022-10-17T00:12:22.764Z,11.64
2022-10-17T00:14:50.291Z,11.06
2022-10-17T00:17:17.643Z,10.87
2022-10-17T00:19:45.292Z,10.82
2022-10-17T00:22:13.396Z,11.67
2022-10-17T00:24:40.795Z,12.41
2022-10-17T00:27:08.405Z,12.34
2022-10-17T00:29:36.019Z,12.17
2022-10-17T00:32:03.623Z,11.60
2022-10-17T00:34:31.225Z,12.08
2022-10-17T00:36:58.700Z,12.37
2022-10-17T00:39:26.084Z,12.26
2022-10-17T00:41:53.689Z,11.90
2022-10-17T00:44:30.327Z,11.67
2022-10-17T00:46:59.598Z,11.30
2022-10-17T00:49:29.922Z,11.35
2022-10-17T00:52:00.430Z,11.45
2022-10-17T00:54:33.727Z,11.46
2022-10-17T00:57:01.854Z,11.38
2022-10-17T00:59:30.328Z,11.52
2022-10-17T01:02:01.387Z,11.59
2022-10-17T01:04:29.009Z,11.16
2022-10-17T01:06:56.372Z,11.21
2022-10-17T01:09:24.424Z,10.72
2022-10-17T01:12:24.472Z,10.53
2022-10-17T01:15:13.941Z,10.15
2022-10-17T01:18:36.112Z,10.16
2022-10-17T01:21:09.852Z,10.44
2022-10-17T01:23:49.444Z,10.64
2022-10-17T01:26:32.012Z,10.76
2022-10-17T01:29:21.343Z,10.97
2022-10-17T01:32:02.223Z,11.16
2022-10-17T01:34:51.675Z,11.45
2022-10-17T01:37:28.609Z,11.65
2022-10-17T01:40:05.597Z,11.62
2022-10-17T01:42:49.702Z,11.37
2022-10-17T01:45:31.961Z,11.28
2022-10-17T01:48:05.814Z,10.71
2022-10-17T01:50:36.478Z,10.85
2022-10-17T01:53:16.969Z,10.67
2022-10-17T01:55:46.401Z,10.56
2022-10-17T01:58:19.077Z,10.55
2022-10-17T02:00:47.409Z,10.70
2022-10-17T02:03:18.051Z,10.59
2022-10-17T02:05:46.028Z,10.72
2022-10-17T02:08:13.611Z,10.57
2022-10-17T02:10:47.656Z,10.78
2022-10-17T02:13:57.534Z,10.54
2022-10-17T02:16:25.056Z,10.17
2022-10-17T02:19:24.729Z,9.85
2022-10-17T02:22:07.364Z,9.63
2022-10-17T02:24:51.107Z,9.10
2022-10-17T02:27:30.735Z,9.00
2022-10-17T02:30:21.412Z,9.34
2022-10-17T02:33:13.970Z,8.87
2022-10-17T02:35:44.734Z,8.87
2022-10-17T02:38:12.434Z,9.01
2022-10-17T02:40:40.628Z,9.06
2022-10-17T02:43:08.766Z,9.42
2022-10-17T02:45:37.512Z,10.03
2022-10-17T02:48:08.446Z,10.49
2022-10-17T02:50:43.672Z,10.27
2022-10-17T02:53:12.858Z,10.33
2022-10-17T02:55:50.721Z,10.34
2022-10-17T02:58:25.319Z,10.29
2022-10-17T03:00:52.832Z,10.26
2022-10-17T03:03:26.247Z,10.22
2022-10-17T03:05:54.142Z,10.02
2022-10-17T03:08:23.228Z,10.16
2022-10-17T03:10:50.839Z,10.33
2022-10-17T03:13:18.812Z,10.28
2022-10-17T03:15:46.641Z,9.99
2022-10-17T03:18:14.556Z,10.06
2022-10-17T03:20:42.171Z,10.27
2022-10-17T03:23:09.524Z,10.33
2022-10-17T03:25:36.932Z,10.84
2022-10-17T03:28:06.404Z,11.05
2022-10-17T03:30:34.313Z,11.35
2022-10-17T03:33:01.662Z,10.87
2022-10-17T03:35:29.331Z,10.86
2022-10-17T03:37:57.012Z,10.45
2022-10-17T03:40:24.854Z,10.43
2022-10-17T03:42:53.215Z,10.31
2022-10-17T03:45:20.715Z,10.56
2022-10-17T03:47:48.609Z,10.21
2022-10-17T03:50:16.254Z,10.57
2022-10-17T03:52:47.412Z,10.39
2022-10-17T03:55:15.149Z,9.97
2022-10-17T03:57:45.486Z,10.19
2022-10-17T04:00:13.663Z,10.02
2022-10-17T04:02:41.648Z,9.92
2022-10-17T04:05:09.795Z,10.12
2022-10-17T04:07:37.685Z,10.06
2022-10-17T04:10:05.763Z,10.55
2022-10-17T04:12:33.661Z,10.71
2022-10-17T04:15:01.085Z,10.66
2022-10-17T04:17:35.773Z,10.37
2022-10-17T04:20:06.818Z,10.81
2022-10-17T04:22:34.845Z,10.84
2022-10-17T04:25:02.270Z,10.73
2022-10-17T04:27:31.465Z,11.03
2022-10-17T04:29:58.820Z,11.46
2022-10-17T04:32:26.428Z,11.28
2022-10-17T04:34:54.580Z,10.59
2022-10-17T04:37:22.085Z,9.96
2022-10-17T04:39:50.123Z,9.12
2022-10-17T04:42:17.768Z,8.95
2022-10-17T04:44:45.763Z,8.90
2022-10-17T04:47:13.892Z,9.15
2022-10-17T04:49:42.593Z,9.52
2022-10-17T04:52:10.091Z,10.05
2022-10-17T04:54:37.528Z,10.45
2022-10-17T04:57:05.727Z,10.38
2022-10-17T04:59:33.246Z,10.62
2022-10-17T05:02:04.581Z,11.12
2022-10-17T05:04:33.772Z,11.14
2022-10-17T05:07:01.411Z,11.23
2022-10-17T05:09:30.064Z,10.82
2022-10-17T05:11:58.207Z,10.98
2022-10-17T05:14:25.840Z,10.57
2022-10-17T05:16:53.723Z,10.12
2022-10-17T05:19:21.406Z,9.97
2022-10-17T05:21:49.791Z,9.97
2022-10-17T05:24:17.179Z,10.45
2022-10-17T05:26:44.780Z,10.84
2022-10-17T05:29:12.822Z,10.85
2022-10-17T05:31:40.448Z,10.59
2022-10-17T05:34:10.337Z,10.92
2022-10-17T05:36:40.490Z,11.49
2022-10-17T05:39:08.943Z,11.74
2022-10-17T05:41:37.652Z,11.34
2022-10-17T05:44:05.847Z,10.96
2022-10-17T05:46:35.103Z,10.50
2022-10-17T05:49:10.639Z,10.26
2022-10-17T05:51:47.692Z,10.32
2022-10-17T05:54:15.313Z,10.09
2022-10-17T05:56:42.773Z,10.37
2022-10-17T05:59:10.417Z,10.36
2022-10-17T06:01:39.091Z,10.72
2022-10-17T06:04:06.971Z,11.12
2022-10-17T06:06:37.033Z,11.35
2022-10-17T06:09:05.473Z,11.03
2022-10-17T06:11:34.018Z,11.21
2022-10-17T06:14:01.674Z,10.99
2022-10-17T06:16:29.503Z,10.74
2022-10-17T06:18:57.124Z,10.82
2022-10-17T06:21:26.237Z,11.36
2022-10-17T06:23:54.249Z,11.58
2022-10-17T06:26:22.206Z,11.71
2022-10-17T06:28:49.698Z,11.43
2022-10-17T06:31:17.516Z,11.80
2022-10-17T06:33:45.627Z,11.96
2022-10-17T06:36:14.857Z,12.07
2022-10-17T06:38:43.260Z,12.22
2022-10-17T06:41:14.670Z,12.34
2022-10-17T06:43:45.656Z,12.41
2022-10-17T06:46:21.171Z,12.48
2022-10-17T06:48:50.944Z,12.68
2022-10-17T06:51:18.674Z,12.64
2022-10-17T06:53:47.261Z,12.57
2022-10-17T06:56:15.903Z,12.36
2022-10-17T06:58:44.183Z,12.39
2022-10-17T07:01:13.254Z,12.54
2022-10-17T07:03:41.308Z,12.72
2022-10-17T07:06:11.283Z,12.67
2022-10-17T07:08:43.549Z,12.91
2022-10-17T07:11:12.226Z,12.89
2022-10-17T07:13:40.483Z,13.17
2022-10-17T07:16:08.235Z,13.17
2022-10-17T07:18:36.658Z,13.23
2022-10-17T07:21:04.177Z,13.42
2022-10-17T07:23:32.051Z,13.58
2022-10-17T07:26:08.975Z,14.02
2022-10-17T07:28:40.160Z,13.81
2022-10-17T07:31:17.112Z,14.06
2022-10-17T07:36:18.285Z,14.22
2022-10-17T07:38:45.755Z,14.32
2022-10-17T07:41:17.799Z,14.32
2022-10-17T07:43:49.346Z,14.49
2022-10-17T07:46:17.586Z,14.94
2022-10-17T07:48:45.303Z,14.96
2022-10-17T07:51:13.005Z,14.97
2022-10-17T07:53:42.734Z,15.19
2022-10-17T07:56:13.006Z,15.03
2022-10-17T07:58:40.424Z,15.52
2022-10-17T08:01:14.806Z,15.51
2022-10-17T08:03:44.798Z,15.65
2022-10-17T08:06:12.694Z,15.76
2022-10-17T08:08:40.694Z,15.94
2022-10-17T08:11:11.103Z,15.88
2022-10-17T08:13:39.034Z,15.96
2022-10-17T08:16:09.016Z,16.02
2022-10-17T08:18:37.054Z,16.10
2022-10-17T08:21:08.599Z,16.29
2022-10-17T08:23:37.009Z,16.34
2022-10-17T08:26:08.152Z,16.47
2022-10-17T08:28:36.575Z,16.50
2022-10-17T08:31:12.222Z,16.94
2022-10-17T08:33:40.568Z,16.85
2022-10-17T08:36:09.348Z,16.97
2022-10-17T08:38:38.490Z,16.91
2022-10-17T08:41:49.803Z,17.05
2022-10-17T08:44:46.438Z,17.08
2022-10-17T08:47:24.632Z,17.26
2022-10-17T08:49:55.752Z,17.44
2022-10-17T08:52:38.016Z,17.80
2022-10-17T08:55:15.240Z,17.62
2022-10-17T08:57:43.425Z,17.47
2022-10-17T09:00:21.451Z,18.16
2022-10-17T09:02:58.156Z,18.04
2022-10-17T09:05:55.405Z,18.67
2022-10-17T09:09:03.845Z,18.42
2022-10-17T09:11:33.981Z,18.69
2022-10-17T09:14:26.590Z,18.74
2022-10-17T09:17:08.429Z,18.65
2022-10-17T09:19:39.349Z,19.05
2022-10-17T09:22:13.389Z,19.36
2022-10-17T09:24:48.528Z,19.32
2022-10-17T09:27:21.743Z,19.48
2022-10-17T09:29:55.116Z,20.00
2022-10-17T09:32:24.858Z,20.23
2022-10-17T09:34:53.566Z,20.25
2022-10-17T09:37:26.327Z,20.45
2022-10-17T09:39:53.987Z,20.74
2022-10-17T09:42:24.007Z,21.02
2022-10-17T09:44:57.925Z,21.29
2022-10-17T09:47:41.390Z,21.17
2022-10-17T09:50:21.922Z,21.27
2022-10-17T09:52:50.776Z,22.01
2022-10-17T09:55:22.555Z,21.87
2022-10-17T09:57:58.239Z,22.25
2022-10-17T10:00:27.042Z,22.06
2022-10-17T10:03:15.289Z,22.54
2022-10-17T10:05:58.322Z,22.64
2022-10-17T10:08:35.804Z,22.66
2022-10-17T10:11:13.423Z,22.80
2022-10-17T10:13:42.812Z,22.76
2022-10-17T10:16:20.886Z,23.09
2022-10-17T10:18:50.927Z,23.45
2022-10-17T10:21:27.322Z,22.89
2022-10-17T10:24:10.568Z,23.45
2022-10-17T10:26:44.366Z,23.40
2022-10-17T10:29:25.199Z,23.60
2022-10-17T10:31:53.432Z,23.93
2022-10-17T10:34:26.877Z,23.43
2022-10-17T10:37:05.886Z,23.70
2022-10-17T10:39:37.439Z,23.78
2022-10-17T10:42:07.801Z,23.92
2022-10-17T10:44:36.517Z,24.11
2022-10-17T10:47:20.001Z,24.55
2022-10-17T10:49:47.771Z,24.56
2022-10-17T10:52:45.669Z,24.28
2022-10-17T10:55:27.305Z,24.25
2022-10-17T10:57:58.666Z,23.73
2022-10-17T11:00:28.261Z,24.23
2022-10-17T11:03:01.215Z,24.21
2022-10-17T11:05:51.673Z,24.75
2022-10-17T11:08:43.462Z,24.71
2022-10-17T11:11:29.572Z,25.00
2022-10-17T11:14:19.887Z,25.09
2022-10-17T11:17:02.621Z,24.63
2022-10-17T11:19:47.440Z,25.07
2022-10-17T11:22:29.263Z,24.51
2022-10-17T11:25:12.214Z,24.60
2022-10-17T11:27:39.856Z,24.93
2022-10-17T11:30:09.483Z,24.93
2022-10-17T11:32:41.837Z,25.49
2022-10-17T11:35:27.445Z,25.47
2022-10-17T11:38:12.977Z,25.77
2022-10-17T11:40:43.333Z,25.03
2022-10-17T11:43:19.869Z,24.66
2022-10-17T11:45:52.833Z,25.22
2022-10-17T11:48:34.970Z,25.73
2022-10-17T11:54:23.434Z,25.85
2022-10-17T11:57:13.861Z,24.93
2022-10-17T11:59:47.886Z,24.78
2022-10-17T12:02:23.938Z,25.15
2022-10-17T12:04:54.848Z,25.28
2022-10-17T12:07:46.703Z,25.06
2022-10-17T12:10:47.587Z,24.33
2022-10-17T12:13:38.282Z,24.51
2022-10-17T12:16:21.263Z,23.94
2022-10-17T12:18:51.376Z,24.78
2022-10-17T12:21:19.066Z,24.92
2022-10-17T12:23:53.830Z,24.73
2022-10-17T12:26:28.966Z,25.10
2022-10-17T12:28:57.168Z,25.39
2022-10-17T12:31:32.528Z,24.52
2022-10-17T12:34:02.742Z,24.00
2022-10-17T12:36:30.214Z,24.77
2022-10-17T12:39:03.703Z,24.73
2022-10-17T12:41:40.725Z,25.31
2022-10-17T12:44:14.385Z,23.72
2022-10-17T12:46:45.840Z,23.71
2022-10-17T12:49:39.118Z,23.95
2022-10-17T12:52:45.100Z,23.99
2022-10-17T12:55:15.114Z,24.63
2022-10-17T12:58:01.690Z,25.03
2022-10-17T13:00:43.833Z,24.86
2022-10-17T13:03:22.137Z,24.96
2022-10-17T13:05:53.136Z,24.18
2022-10-17T13:08:33.103Z,24.05
2022-10-17T13:11:01.270Z,24.03
2022-10-17T13:13:38.352Z,24.02
2022-10-17T13:16:05.877Z,22.72
2022-10-17T13:18:34.358Z,23.41
2022-10-17T13:21:03.520Z,24.02
2022-10-17T13:23:33.801Z,24.67
2022-10-17T13:26:16.564Z,24.78
2022-10-17T13:28:44.382Z,24.58
2022-10-17T13:31:31.881Z,24.26
2022-10-17T13:34:01.729Z,24.79
2022-10-17T13:36:30.581Z,25.00
2022-10-17T13:39:00.021Z,24.70
2022-10-17T13:41:37.173Z,24.84
2022-10-17T13:44:14.378Z,24.75
2022-10-17T13:46:43.132Z,24.67
2022-10-17T13:49:23.317Z,24.37
2022-10-17T13:51:54.595Z,23.53
2022-10-17T13:54:42.914Z,22.71
2022-10-17T13:57:30.582Z,22.45
2022-10-17T14:00:10.061Z,23.02
2022-10-17T14:02:41.063Z,22.88
2022-10-17T14:05:17.218Z,23.53
2022-10-17T14:10:42.906Z,23.61
2022-10-17T14:13:24.253Z,23.60
2022-10-17T14:15:54.057Z,23.07
2022-10-17T14:18:25.278Z,23.08
2022-10-17T14:23:43.747Z,23.51
2022-10-17T14:26:22.681Z,23.55
2022-10-17T14:29:14.538Z,23.95
2022-10-17T14:31:42.176Z,24.14
2022-10-17T14:34:21.003Z,24.26
2022-10-17T14:36:51.669Z,24.34
2022-10-17T14:39:22.464Z,24.27
2022-10-17T14:41:51.314Z,23.73
2022-10-17T14:44:30.542Z,23.82
2022-10-17T14:47:30.228Z,23.98
2022-10-17T14:49:52.208Z,24.17
2022-10-17T14:52:19.725Z,24.12
2022-10-17T14:54:48.331Z,24.25
2022-10-17T14:57:38.807Z,24.06
2022-10-17T15:00:06.805Z,23.93
2022-10-17T15:02:34.559Z,23.96
2022-10-17T15:05:02.032Z,23.88
2022-10-17T15:07:29.823Z,23.75
2022-10-17T15:09:57.203Z,23.67
2022-10-17T15:12:25.677Z,23.50
2022-10-17T15:14:54.131Z,23.43
2022-10-17T15:17:26.321Z,23.38
2022-10-17T15:19:54.057Z,23.47
2022-10-17T15:22:21.914Z,23.30
2022-10-17T15:24:49.620Z,23.15
2022-10-17T15:27:22.759Z,22.89
2022-10-17T15:29:51.516Z,22.86
2022-10-17T15:32:19.374Z,22.93
2022-10-17T15:34:46.814Z,22.86
2022-10-17T15:37:21.946Z,22.76
2022-10-17T15:39:54.573Z,22.67
2022-10-17T15:42:23.501Z,22.53
2022-10-17T15:44:51.238Z,22.44
2022-10-17T15:47:31.475Z,22.31
2022-10-17T15:50:00.521Z,22.17
2022-10-17T15:52:28.122Z,22.08
2022-10-17T15:54:57.375Z,22.03
2022-10-17T15:57:29.726Z,21.80
2022-10-17T15:59:59.022Z,21.77
2022-10-17T16:02:26.852Z,21.96
2022-10-17T16:04:54.453Z,21.67
2022-10-17T16:07:21.867Z,20.74
2022-10-17T16:09:49.212Z,19.94
2022-10-17T16:12:27.181Z,18.98
2022-10-17T16:14:54.882Z,18.94
2022-10-17T16:17:22.526Z,18.33
2022-10-17T16:19:50.019Z,18.10
2022-10-17T16:22:26.801Z,18.16
2022-10-17T16:25:07.242Z,17.81
2022-10-17T16:27:35.015Z,17.84
2022-10-17T16:30:06.715Z,17.53
2022-10-17T16:32:34.320Z,17.38
2022-10-17T16:35:01.737Z,17.06
2022-10-17T16:37:29.403Z,17.36
2022-10-17T16:39:56.788Z,17.67
2022-10-17T16:42:24.233Z,16.97
2022-10-17T16:44:51.895Z,16.82
2022-10-17T16:47:19.644Z,17.33
2022-10-17T16:49:47.129Z,17.21
2022-10-17T16:52:14.759Z,17.24
2022-10-17T16:54:42.087Z,17.17
2022-10-17T16:57:09.519Z,16.96
2022-10-17T16:59:37.249Z,16.63
2022-10-17T17:02:04.734Z,16.25
2022-10-17T17:04:32.359Z,16.07
2022-10-17T17:07:00.464Z,16.35
2022-10-17T17:09:27.988Z,16.55
2022-10-17T17:11:55.667Z,16.88
2022-10-17T17:14:23.848Z,17.04
2022-10-17T17:16:52.185Z,17.10
2022-10-17T17:19:20.908Z,17.28
2022-10-17T17:21:51.245Z,17.37
2022-10-17T17:24:23.997Z,17.10
2022-10-17T17:26:53.836Z,17.01
2022-10-17T17:29:22.938Z,17.02
2022-10-17T17:31:50.677Z,17.25
2022-10-17T17:34:18.634Z,17.05
2022-10-17T17:36:46.494Z,16.98
2022-10-17T17:39:15.697Z,16.60
2022-10-17T17:41:44.428Z,16.94
2022-10-17T17:44:16.409Z,16.76
2022-10-17T17:46:45.696Z,16.67
2022-10-17T17:49:13.711Z,16.66
2022-10-17T17:51:42.191Z,16.63
2022-10-17T17:54:13.127Z,16.39
2022-10-17T17:56:40.778Z,16.10
2022-10-17T17:59:10.840Z,16.12
2022-10-17T18:01:39.390Z,16.09
2022-10-17T18:04:08.845Z,15.87
2022-10-17T18:06:37.834Z,15.89
2022-10-17T18:09:06.354Z,16.17
2022-10-17T18:11:34.411Z,16.18
2022-10-17T18:14:08.081Z,16.04
2022-10-17T18:16:37.513Z,16.23
2022-10-17T18:19:07.365Z,16.21
2022-10-17T18:21:36.397Z,16.24
2022-10-17T18:24:07.160Z,15.59
2022-10-17T18:26:35.438Z,15.23
2022-10-17T18:29:04.034Z,15.52
2022-10-17T18:31:36.287Z,15.52
2022-10-17T18:34:05.205Z,15.68
2022-10-17T18:36:34.614Z,15.62
2022-10-17T18:39:02.557Z,15.53
2022-10-17T18:41:30.700Z,15.43
2022-10-17T18:43:58.911Z,15.31
2022-10-17T18:46:32.148Z,15.46
2022-10-17T18:49:00.420Z,15.30
2022-10-17T18:51:28.683Z,15.23
2022-10-17T18:53:59.027Z,15.27
2022-10-17T18:56:27.385Z,15.16
2022-10-17T18:58:55.689Z,14.96
2022-10-17T19:01:27.528Z,14.90
2022-10-17T19:03:58.373Z,14.85
2022-10-17T19:06:29.238Z,14.95
2022-10-17T19:08:57.325Z,14.96
2022-10-17T19:11:26.180Z,14.72
2022-10-17T19:13:55.933Z,14.94
2022-10-17T19:16:27.708Z,14.95
2022-10-17T19:19:00.582Z,14.84
2022-10-17T19:21:28.611Z,14.98
2022-10-17T19:23:58.830Z,14.48
2022-10-17T19:26:28.090Z,14.36
2022-10-17T19:28:56.083Z,14.29
2022-10-17T19:31:27.041Z,14.11
2022-10-17T19:33:55.769Z,13.40
2022-10-17T19:36:30.619Z,13.14
2022-10-17T19:39:03.687Z,13.46
2022-10-17T19:41:31.937Z,13.47
2022-10-17T19:44:00.564Z,13.68
2022-10-17T19:46:29.715Z,13.91
2022-10-17T19:48:57.767Z,14.02
2022-10-17T19:51:26.338Z,14.25
2022-10-17T19:53:56.088Z,14.22
2022-10-17T19:56:25.455Z,13.51
2022-10-17T19:58:54.431Z,13.50
2022-10-17T20:01:25.268Z,13.83
2022-10-17T20:03:54.474Z,13.75
2022-10-17T20:06:22.539Z,13.31
2022-10-17T20:08:50.388Z,13.21
2022-10-17T20:11:21.325Z,13.26
2022-10-17T20:13:49.600Z,13.45
2022-10-17T20:16:21.425Z,13.44
2022-10-17T20:18:51.022Z,13.31
2022-10-17T20:21:27.276Z,12.92
2022-10-17T20:23:54.978Z,13.21
2022-10-17T20:26:33.656Z,13.32
2022-10-17T20:29:11.030Z,13.39
2022-10-17T20:31:39.444Z,13.13
2022-10-17T20:34:07.367Z,13.02
2022-10-17T20:36:37.543Z,13.07
2022-10-17T20:39:06.116Z,12.82
2022-10-17T20:41:33.781Z,12.24
2022-10-17T20:44:01.156Z,12.11
2022-10-17T20:46:37.200Z,12.15
2022-10-17T20:49:06.592Z,12.16
2022-10-17T20:51:34.942Z,12.44
2022-10-17T20:54:03.084Z,12.43
2022-10-17T20:56:32.312Z,12.26
2022-10-17T20:59:05.528Z,12.31
2022-10-17T21:01:34.590Z,12.53
2022-10-17T21:04:21.388Z,12.55
2022-10-17T21:06:52.091Z,12.47
2022-10-17T21:09:20.232Z,12.66
2022-10-17T21:11:48.535Z,12.72
2022-10-17T21:14:16.770Z,12.58
2022-10-17T21:16:44.191Z,12.52
2022-10-17T21:19:12.312Z,12.53
2022-10-17T21:21:42.675Z,12.49
2022-10-17T21:24:13.632Z,12.32
2022-10-17T21:26:42.330Z,11.91
2022-10-17T21:29:10.328Z,11.18
2022-10-17T21:31:38.876Z,11.31
2022-10-17T21:34:21.254Z,11.43
2022-10-17T21:36:48.930Z,11.73
2022-10-17T21:39:16.964Z,11.56
2022-10-17T21:41:44.450Z,11.43
2022-10-17T21:44:19.856Z,11.50
2022-10-17T21:46:48.006Z,11.38
2022-10-17T21:49:18.251Z,11.35
2022-10-17T21:51:47.467Z,11.11
2022-10-17T21:54:16.159Z,11.37
2022-10-17T21:56:43.570Z,11.25
2022-10-17T21:59:10.978Z,11.29
2022-10-17T22:01:40.685Z,11.60
2022-10-17T22:04:11.482Z,11.31
2022-10-17T22:06:41.007Z,11.09
2022-10-17T22:09:13.261Z,11.07
2022-10-17T22:11:41.118Z,10.98
2022-10-17T22:14:13.135Z,10.79
2022-10-17T22:16:40.902Z,10.82
2022-10-17T22:19:08.933Z,11.00
2022-10-17T22:21:37.582Z,10.97
2022-10-17T22:24:07.141Z,11.29
2022-10-17T22:26:36.215Z,11.37
2022-10-17T22:29:05.551Z,11.51
2022-10-17T22:31:33.308Z,11.57
2022-10-17T22:34:00.665Z,11.50
2022-10-17T22:36:28.540Z,11.26
2022-10-17T22:38:55.914Z,11.32
2022-10-17T22:41:23.239Z,10.87
2022-10-17T22:43:50.855Z,11.30
2022-10-17T22:46:18.400Z,11.29
2022-10-17T22:48:45.733Z,11.49
2022-10-17T22:51:13.723Z,11.37
2022-10-17T22:53:41.342Z,11.38
2022-10-17T22:56:14.375Z,11.03
2022-10-17T22:58:42.060Z,11.30
2022-10-17T23:01:13.031Z,11.20
2022-10-17T23:03:40.537Z,11.01
2022-10-17T23:06:08.159Z,10.54
2022-10-17T23:08:35.572Z,10.17
2022-10-17T23:11:02.990Z,9.75
2022-10-17T23:13:30.589Z,9.94
2022-10-17T23:15:57.957Z,9.87
2022-10-17T23:18:26.299Z,9.73
2022-10-17T23:20:54.568Z,10.57
2022-10-17T23:23:22.230Z,10.20
2022-10-17T23:25:50.483Z,10.45
2022-10-17T23:28:18.281Z,10.38
2022-10-17T23:30:45.788Z,10.68
2022-10-17T23:33:13.927Z,11.01
2022-10-17T23:35:42.069Z,11.14
2022-10-17T23:38:09.888Z,10.92
2022-10-17T23:40:37.343Z,10.87
2022-10-17T23:43:05.426Z,10.63
2022-10-17T23:45:36.117Z,10.50
2022-10-17T23:48:05.428Z,10.74
2022-10-17T23:50:33.063Z,10.94
2022-10-17T23:53:00.466Z,11.01
2022-10-17T23:55:27.818Z,11.00
2022-10-17T23:57:55.449Z,10.94
